Thurman, IA (51654)

5:35 AM CDT on August 03, 2015 (GMT -0500)
North Side of Town | Change Station
CLOSE
Current Station
Personal Weather Station
Location: Thurman, IA
Elevation: 1007 ft
Nearby Weather Stations

Elev 1007 ft 40.82 °N, 95.75 °W | Updated 8 seconds ago

Partly Cloudy
Partly Cloudy
68.8 °F
Feels Like 68.8 °F
N
2.0
Wind Variable Wind from East
Gusts 6.0 mph

Today
High -- | Low -- °F
--% Chance of Precip.
Yesterday
High -- | Low -- °F
Precip. -- in
6:21 AM 8:36 PM
Waning Gibbous, 88% visible
Pressure 29.93 in
Visibility 10.0 miles
Clouds Clear
Dew Point 64 °F
Humidity 86%
Rainfall 0.00 in
Snow Depth Not available.
UV 0 out of 12
Pollen 7.80 out of 12
Air Quality Not available.
Flu Activity Not available.
METAR KPMV 031015Z AUTO 05006KT 10SM CLR 20/17 A2993 RMK AO2 T02010169

More Conditions Fewer Conditions

Pressure 29.93 in
Visibility 10.0 miles
Clouds Clear
Dew Point 64 °F
Humidity 86%
Rainfall 0.00 in
Snow Depth Not available.
UV 0 out of 12
Pollen 7.80 out of 12
Air Quality Not available.
Flu Activity Not available.
METAR KPMV 031015Z AUTO 05006KT 10SM CLR 20/17 A2993 RMK AO2 T02010169

More Conditions Fewer Conditions

10-Day Weather Forecast

Almanac

Astronomy

Aug. 03, 2015 Rise Set
Actual Time 6:21 AM CDT 8:36 PM CDT
Civil Twilight 5:50 AM CDT 9:07 PM CDT
Nautical Twilight 5:12 AM CDT 9:44 PM CDT
Astronomical Twilight 4:31 AM CDT 10:26 PM CDT
Moon 10:40 PM CDT 10:09 AM CDT
Length of Visible Light 15h 16m
Length of Day
14h 15m
Tomorrow will be 2m 7s shorter.
Waning Gibbous, 88% of the Moon is Illuminated
Today
Waning Gibbous
Aug 6
Last Quarter
Aug 14
New
Aug 22
First Quarter
Aug 29
Full

Today's Extremes

State Highs State Lows

Community

WunderPhotos

Upload Photos

1,843,610 photos uploaded!

Nearby

Snow Depth

Station Depth Elevation
No new snow has been reported.

Earthquake Activity

City Distance Mag. Time & Date
No recent earthquake activity has been reported nearby.
Minimum magnitude displayed is 2.5.

Coastal Water Temperatures

Place Temperature
No Stations Reporting

Nearby Weather Stations